Time;durP1;ratioP1;P1;durP2;ratioP2;P2;SDS_P1;SDS_P2;PMS_P1;PMS_P2;Temp;Humidity;BMP_temperature;BMP_pressure;BME280_temperature;BME280_humidity;BME280_pressure;Samples;Min_cycle;Max_cycle;Signal;HPM_P1;HPM_P2
2023/04/03 00:02:04;;;;;;;4.97;1.87;;;;;;;0.47;100.00;103431.72;5034569;28;20197;-66
2023/04/03 00:04:30;;;;;;;5.53;2.10;;;;;;;0.46;100.00;103429.03;5048569;28;20287;-65
2023/04/03 00:06:55;;;;;;;6.90;2.17;;;;;;;0.45;100.00;103432.31;5055967;28;20189;-66
2023/04/03 00:09:21;;;;;;;6.00;1.93;;;;;;;0.41;100.00;103432.72;5054528;28;20204;-66
2023/04/03 00:11:46;;;;;;;5.33;1.80;;;;;;;0.41;100.00;103433.59;5052370;28;20217;-66
2023/04/03 00:14:12;;;;;;;4.30;2.10;;;;;;;0.38;100.00;103440.88;5053875;28;20295;-66
2023/04/03 00:16:37;;;;;;;6.67;2.00;;;;;;;0.37;100.00;103444.13;5033644;28;20655;-66
2023/04/03 00:19:02;;;;;;;4.63;2.13;;;;;;;0.34;100.00;103439.63;5051916;28;20737;-66
2023/04/03 00:21:28;;;;;;;6.07;2.00;;;;;;;0.33;100.00;103429.44;5046442;28;20210;-65
2023/04/03 00:23:54;;;;;;;6.43;2.20;;;;;;;0.34;100.00;103438.78;5047139;28;20213;-66
2023/04/03 00:26:20;;;;;;;8.43;2.53;;;;;;;0.35;100.00;103438.03;5051744;28;20208;-66
2023/04/03 00:28:46;;;;;;;10.27;2.30;;;;;;;0.34;100.00;103434.59;5048633;28;20236;-66
2023/04/03 00:31:15;;;;;;;5.00;2.40;;;;;;;0.33;100.00;103440.38;5053845;28;20756;-65
2023/04/03 00:33:40;;;;;;;6.80;2.17;;;;;;;0.34;100.00;103436.25;5033736;28;20189;-65
2023/04/03 00:36:10;;;;;;;8.57;2.23;;;;;;;0.27;100.00;103443.91;5052804;28;20192;-65
2023/04/03 00:38:36;;;;;;;6.33;2.33;;;;;;;0.28;100.00;103441.53;5033349;28;20292;-66
2023/04/03 00:41:02;;;;;;;6.13;1.90;;;;;;;0.24;100.00;103436.94;5027080;28;20229;-65
2023/04/03 00:43:28;;;;;;;9.47;2.10;;;;;;;0.24;100.00;103446.13;5033078;28;20190;-66
2023/04/03 00:45:59;;;;;;;6.67;2.20;;;;;;;0.24;100.00;103441.09;5032045;28;20190;-66
2023/04/03 00:48:30;;;;;;;6.53;1.83;;;;;;;0.26;100.00;103449.69;5035745;28;20246;-65
2023/04/03 00:50:57;;;;;;;6.30;2.23;;;;;;;0.26;100.00;103451.34;5034973;28;20352;-65
2023/04/03 00:53:27;;;;;;;10.83;2.47;;;;;;;0.24;100.00;103449.53;5033760;28;20639;-66
2023/04/03 00:55:55;;;;;;;5.53;1.80;;;;;;;0.23;100.00;103441.81;5051292;28;20666;-65
2023/04/03 00:58:32;;;;;;;7.07;2.30;;;;;;;0.14;100.00;103451.84;5036204;28;20189;-66
2023/04/03 01:00:58;;;;;;;7.77;2.40;;;;;;;0.15;100.00;103451.09;5032961;28;20173;-65
2023/04/03 01:03:25;;;;;;;6.37;2.40;;;;;;;0.11;100.00;103448.13;5042826;28;20648;-66
2023/04/03 01:05:51;;;;;;;8.97;2.20;;;;;;;0.13;100.00;103448.28;5032232;28;20187;-66
2023/04/03 01:08:16;;;;;;;6.97;2.17;;;;;;;0.11;100.00;103446.47;5030173;28;20193;-66
2023/04/03 01:10:42;;;;;;;6.17;2.43;;;;;;;0.06;100.00;103451.81;5029253;28;20247;-65
2023/04/03 01:13:24;;;;;;;3.23;1.97;;;;;;;0.03;100.00;103454.91;5038247;28;20193;-67
2023/04/03 01:15:50;;;;;;;7.40;2.00;;;;;;;0.01;100.00;103451.31;5040431;28;20260;-67
2023/04/03 01:18:15;;;;;;;6.20;2.13;;;;;;;-0.01;100.00;103445.25;5049897;28;20960;-66
2023/04/03 01:21:02;;;;;;;5.97;2.00;;;;;;;-0.01;100.00;103451.91;5052892;28;20217;-66
2023/04/03 01:23:58;;;;;;;6.00;1.73;;;;;;;-0.06;100.00;103448.00;5038707;28;20209;-65
2023/04/03 01:26:25;;;;;;;9.27;2.40;;;;;;;-0.07;100.00;103451.28;5049136;28;20186;-66
2023/04/03 01:28:53;;;;;;;4.67;2.23;;;;;;;-0.12;100.00;103457.47;5049184;28;20193;-66
2023/04/03 01:31:27;;;;;;;8.40;2.20;;;;;;;-0.11;100.00;103452.59;5027939;28;20289;-67
2023/04/03 01:33:55;;;;;;;8.70;2.10;;;;;;;-0.09;100.00;103455.28;5034239;28;20276;-66
2023/04/03 01:36:27;;;;;;;9.33;2.27;;;;;;;-0.04;100.00;103456.63;5045022;28;20185;-66
2023/04/03 01:38:54;;;;;;;6.70;1.93;;;;;;;-0.06;100.00;103455.56;5033177;28;20201;-65
2023/04/03 01:41:20;;;;;;;4.47;1.90;;;;;;;-0.07;100.00;103462.25;5050195;28;20677;-65
2023/04/03 01:43:48;;;;;;;7.03;2.30;;;;;;;0.00;100.00;103461.25;5036715;28;20319;-65
2023/04/03 01:46:14;;;;;;;11.30;2.23;;;;;;;0.00;100.00;103454.56;5059081;28;20191;-66
2023/04/03 01:48:40;;;;;;;8.93;1.90;;;;;;;0.02;100.00;103457.25;5037513;28;20189;-65
2023/04/03 01:51:06;;;;;;;6.53;2.20;;;;;;;0.03;100.00;103462.47;5028565;28;20222;-66
2023/04/03 01:53:32;;;;;;;7.90;2.27;;;;;;;0.04;100.00;103451.66;5047334;28;20190;-65
2023/04/03 01:55:57;;;;;;;6.87;2.20;;;;;;;0.05;100.00;103460.09;5051012;28;20220;-66
2023/04/03 01:58:23;;;;;;;5.63;1.80;;;;;;;0.05;100.00;103457.59;5035731;28;20327;-66
2023/04/03 02:00:51;;;;;;;4.20;1.83;;;;;;;0.05;100.00;103455.94;5031616;28;20186;-66
2023/04/03 02:03:16;;;;;;;7.73;1.90;;;;;;;0.17;100.00;103453.78;5051386;28;20278;-66
2023/04/03 02:05:42;;;;;;;5.77;2.13;;;;;;;0.17;100.00;103457.22;5029010;28;20299;-64
2023/04/03 02:08:08;;;;;;;7.30;2.70;;;;;;;0.22;100.00;103455.13;5030708;28;20209;-64
2023/04/03 02:10:34;;;;;;;6.53;1.90;;;;;;;0.19;100.00;103453.19;5032649;28;20193;-64
2023/04/03 02:12:59;;;;;;;6.10;2.13;;;;;;;0.21;100.00;103458.41;5051863;28;20205;-64
2023/04/03 02:15:25;;;;;;;6.40;2.60;;;;;;;0.27;100.00;103459.03;5032936;28;20205;-66
2023/04/03 02:17:50;;;;;;;9.57;2.00;;;;;;;0.31;100.00;103457.72;5049140;28;20201;-66
2023/04/03 02:20:16;;;;;;;5.57;2.00;;;;;;;0.34;100.00;103453.88;5045288;28;20200;-66
2023/04/03 02:22:43;;;;;;;6.30;1.90;;;;;;;0.31;100.00;103461.13;5028712;28;20186;-65
2023/04/03 02:25:10;;;;;;;5.20;1.83;;;;;;;0.35;100.00;103458.19;5032267;28;20202;-66
2023/04/03 02:27:35;;;;;;;9.10;2.23;;;;;;;0.39;100.00;103457.75;5034910;28;20185;-66
2023/04/03 02:30:02;;;;;;;4.53;1.80;;;;;;;0.37;100.00;103453.31;5032271;28;20561;-65
2023/04/03 02:32:28;;;;;;;5.53;1.80;;;;;;;0.41;100.00;103455.41;5038282;28;20257;-66
2023/04/03 02:34:53;;;;;;;7.47;1.97;;;;;;;0.44;100.00;103456.59;5033945;28;20296;-65
2023/04/03 02:37:19;;;;;;;6.47;2.30;;;;;;;0.43;100.00;103460.72;5032369;28;20201;-66
2023/04/03 02:39:46;;;;;;;7.77;1.77;;;;;;;0.43;100.00;103455.69;5039895;28;20181;-65
2023/04/03 02:42:11;;;;;;;6.17;2.17;;;;;;;0.38;100.00;103459.38;5040610;28;20181;-65
2023/04/03 02:44:38;;;;;;;7.70;2.13;;;;;;;0.36;100.00;103462.47;5033966;28;20211;-65
2023/04/03 02:47:04;;;;;;;5.10;1.60;;;;;;;0.38;100.00;103458.50;5056938;28;20193;-65
2023/04/03 02:49:29;;;;;;;6.70;1.97;;;;;;;0.43;100.00;103466.50;5052397;28;20193;-66
2023/04/03 02:51:55;;;;;;;6.67;2.30;;;;;;;0.44;100.00;103466.66;5039404;28;20216;-66
2023/04/03 02:54:21;;;;;;;5.53;1.83;;;;;;;0.43;100.00;103463.25;5036641;28;20319;-66
2023/04/03 02:56:51;;;;;;;5.63;2.07;;;;;;;0.42;100.00;103460.59;5037811;28;20718;-64
2023/04/03 02:59:16;;;;;;;7.03;2.23;;;;;;;0.42;100.00;103462.22;5040306;28;20186;-65
2023/04/03 03:01:42;;;;;;;3.90;2.10;;;;;;;0.36;100.00;103472.56;5038929;28;20623;-65
2023/04/03 03:04:07;;;;;;;8.17;2.10;;;;;;;0.38;100.00;103465.16;5044771;28;20208;-65
2023/04/03 03:06:33;;;;;;;6.80;1.93;;;;;;;0.35;100.00;103463.22;5039472;28;20203;-66
2023/04/03 03:08:59;;;;;;;8.17;1.90;;;;;;;0.34;100.00;103461.44;5051379;28;20258;-66
2023/04/03 03:11:25;;;;;;;6.83;2.07;;;;;;;0.38;100.00;103467.69;5022999;28;20758;-66
2023/04/03 03:13:50;;;;;;;6.20;2.07;;;;;;;0.34;100.00;103467.34;5035186;28;20360;-66
2023/04/03 03:16:16;;;;;;;7.37;1.77;;;;;;;0.34;100.00;103464.84;5036901;28;20205;-66
2023/04/03 03:18:41;;;;;;;8.13;1.90;;;;;;;0.31;100.00;103471.19;5020749;28;20185;-66
2023/04/03 03:21:07;;;;;;;6.03;1.90;;;;;;;0.32;100.00;103460.38;5038437;28;20631;-65
2023/04/03 03:23:35;;;;;;;8.27;2.03;;;;;;;0.33;100.00;103459.66;5040405;28;20548;-66
2023/04/03 03:26:04;;;;;;;5.67;1.80;;;;;;;0.37;100.00;103466.81;5036022;28;20248;-65
2023/04/03 03:28:30;;;;;;;9.47;2.00;;;;;;;0.36;100.00;103467.50;5041643;28;20192;-65
2023/04/03 03:30:57;;;;;;;7.03;1.60;;;;;;;0.41;100.00;103470.53;5036461;28;20190;-65
2023/04/03 03:33:25;;;;;;;7.57;2.03;;;;;;;0.41;100.00;103468.88;5039325;28;20647;-65
2023/04/03 03:35:51;;;;;;;6.20;2.00;;;;;;;0.41;100.00;103465.47;5035366;28;20233;-65
2023/04/03 03:38:16;;;;;;;6.97;2.07;;;;;;;0.34;100.00;103462.31;5042563;28;20668;-66
2023/04/03 03:40:42;;;;;;;6.83;2.20;;;;;;;0.33;100.00;103460.53;5037155;28;20274;-65
2023/04/03 03:43:07;;;;;;;5.13;2.03;;;;;;;0.38;100.00;103462.63;5036660;28;20538;-65
2023/04/03 03:45:33;;;;;;;4.07;1.53;;;;;;;0.33;100.00;103464.69;5034752;28;20211;-66
2023/04/03 03:47:58;;;;;;;7.43;1.77;;;;;;;0.31;100.00;103463.63;5036110;28;20189;-66
2023/04/03 03:50:24;;;;;;;5.97;1.87;;;;;;;0.31;100.00;103463.63;5037212;28;20288;-65
2023/04/03 03:52:50;;;;;;;5.43;1.80;;;;;;;0.30;100.00;103469.41;5032407;28;20586;-65
2023/04/03 03:55:16;;;;;;;5.77;1.60;;;;;;;0.25;100.00;103457.97;5052662;28;20236;-66
2023/04/03 03:57:42;;;;;;;4.33;1.70;;;;;;;0.21;100.00;103468.47;5036297;28;20272;-65
2023/04/03 04:00:08;;;;;;;6.67;2.40;;;;;;;0.19;100.00;103470.84;5033344;28;20201;-67
2023/04/03 04:02:41;;;;;;;6.80;1.93;;;;;;;0.16;100.00;103467.13;5048630;28;20190;-66
2023/04/03 04:05:08;;;;;;;6.13;1.93;;;;;;;0.17;100.00;103470.53;5037617;28;20251;-65
2023/04/03 04:07:34;;;;;;;5.20;1.80;;;;;;;0.15;100.00;103457.78;5034904;28;20186;-66
2023/04/03 04:10:00;;;;;;;4.50;1.37;;;;;;;0.14;100.00;103472.00;5039128;28;20189;-66
2023/04/03 04:12:26;;;;;;;8.03;1.57;;;;;;;0.14;100.00;103468.59;5032420;28;20718;-66
2023/04/03 04:14:51;;;;;;;5.90;1.80;;;;;;;0.13;100.00;103469.31;5047393;28;20713;-65
2023/04/03 04:17:17;;;;;;;5.50;2.10;;;;;;;0.13;100.00;103473.47;5036902;28;20200;-65
2023/04/03 04:19:43;;;;;;;6.17;1.90;;;;;;;0.11;100.00;103475.84;5036248;28;20209;-65
2023/04/03 04:22:09;;;;;;;4.67;1.50;;;;;;;0.10;100.00;103474.94;5036532;28;20605;-66
2023/04/03 04:24:35;;;;;;;7.77;1.60;;;;;;;0.09;100.00;103477.28;5047287;28;20241;-67
2023/04/03 04:27:02;;;;;;;7.23;1.50;;;;;;;0.09;100.00;103480.72;5033353;28;20219;-66
2023/04/03 04:29:35;;;;;;;4.10;1.30;;;;;;;0.09;100.00;103479.78;5038440;28;20190;-67
2023/04/03 04:32:02;;;;;;;5.30;1.50;;;;;;;0.10;100.00;103489.16;5016623;28;20580;-66
2023/04/03 04:34:28;;;;;;;5.93;1.50;;;;;;;0.09;100.00;103488.25;5032613;28;20233;-66
2023/04/03 04:36:54;;;;;;;5.00;1.37;;;;;;;0.08;100.00;103494.03;5031272;28;20182;-66
2023/04/03 04:39:19;;;;;;;4.33;1.67;;;;;;;0.05;100.00;103491.19;5032967;28;20185;-64
2023/04/03 04:41:45;;;;;;;5.17;1.60;;;;;;;0.09;100.00;103493.28;5032852;28;20185;-64
2023/04/03 04:44:10;;;;;;;2.50;1.43;;;;;;;0.09;100.00;103498.34;5050346;28;20216;-64
2023/04/03 04:46:36;;;;;;;3.67;1.00;;;;;;;0.10;100.00;103494.19;5032948;28;20197;-66
2023/04/03 04:49:03;;;;;;;3.53;1.30;;;;;;;0.07;100.00;103493.88;5032493;28;20932;-67
2023/04/03 04:51:30;;;;;;;5.13;1.40;;;;;;;0.06;100.00;103503.03;5031025;28;20209;-66
2023/04/03 04:53:55;;;;;;;5.17;1.67;;;;;;;0.04;100.00;103499.47;5032026;28;20224;-66
2023/04/03 04:56:21;;;;;;;4.80;1.53;;;;;;;0.05;100.00;103505.44;5032645;28;20680;-66
2023/04/03 04:58:47;;;;;;;3.73;1.80;;;;;;;0.04;100.00;103506.13;5047457;28;20271;-66
2023/04/03 05:01:14;;;;;;;5.87;1.80;;;;;;;0.04;100.00;103507.03;5032333;28;20555;-66
2023/04/03 05:03:51;;;;;;;3.20;1.60;;;;;;;0.05;100.00;103510.47;5031854;28;20201;-66
2023/04/03 05:06:17;;;;;;;6.33;2.00;;;;;;;0.04;100.00;103511.16;5032265;28;20600;-65
2023/04/03 05:08:43;;;;;;;6.60;1.87;;;;;;;0.01;100.00;103521.81;5032342;28;20235;-66
2023/04/03 05:11:09;;;;;;;3.77;1.40;;;;;;;0.03;100.00;103511.03;5032286;28;20296;-65
2023/04/03 05:13:34;;;;;;;7.87;2.20;;;;;;;0.03;100.00;103520.38;5049633;28;20548;-65
2023/04/03 05:16:00;;;;;;;5.10;2.40;;;;;;;0.03;100.00;103524.50;5031864;28;20227;-66
2023/04/03 05:18:27;;;;;;;6.43;1.80;;;;;;;0.03;100.00;103521.09;5032237;28;20204;-65
2023/04/03 05:20:55;;;;;;;4.37;1.90;;;;;;;0.03;100.00;103521.97;5029061;28;20182;-65
2023/04/03 05:23:23;;;;;;;4.47;1.60;;;;;;;0.05;100.00;103526.44;5030465;28;20239;-66
2023/04/03 05:25:48;;;;;;;3.57;1.50;;;;;;;0.05;100.00;103523.91;5031648;28;20209;-67
2023/04/03 05:28:16;;;;;;;4.33;1.50;;;;;;;0.09;100.00;103521.00;5031676;28;20189;-66
2023/04/03 05:30:41;;;;;;;7.53;1.57;;;;;;;0.17;100.00;103530.25;5031826;28;20194;-66
2023/04/03 05:33:07;;;;;;;3.67;1.40;;;;;;;0.28;100.00;103533.88;5031604;28;20202;-65
2023/04/03 05:35:43;;;;;;;6.00;1.30;;;;;;;0.38;100.00;103535.69;5028367;28;20729;-65
2023/04/03 05:38:13;;;;;;;7.67;1.80;;;;;;;0.50;100.00;103531.94;5028960;28;20197;-65
2023/04/03 05:40:38;;;;;;;4.03;1.13;;;;;;;0.62;100.00;103540.72;5032648;28;20186;-66
2023/04/03 05:43:05;;;;;;;3.23;1.27;;;;;;;0.72;100.00;103543.47;5031491;28;20281;-65
2023/04/03 05:45:34;;;;;;;5.10;1.60;;;;;;;0.81;100.00;103539.31;5031566;28;20205;-65
2023/04/03 05:48:00;;;;;;;2.83;1.37;;;;;;;0.91;100.00;103549.63;5031643;28;20186;-66
2023/04/03 05:50:26;;;;;;;4.77;1.77;;;;;;;1.02;100.00;103546.53;5031630;28;20700;-66
2023/04/03 05:52:56;;;;;;;7.47;1.40;;;;;;;1.13;100.00;103541.84;5014936;28;20232;-66
2023/04/03 05:55:24;;;;;;;4.63;1.40;;;;;;;1.22;100.00;103544.38;5014629;28;20315;-66
2023/04/03 05:57:50;;;;;;;3.37;1.23;;;;;;;1.38;100.00;103543.50;5048839;28;20589;-70
2023/04/03 06:00:16;;;;;;;5.90;1.20;;;;;;;1.55;100.00;103548.59;5031260;28;20186;-71
2023/04/03 06:02:46;;;;;;;4.33;1.30;;;;;;;1.75;100.00;103546.38;5028982;28;20182;-72
2023/04/03 06:05:17;;;;;;;3.73;1.30;;;;;;;1.97;100.00;103542.69;5027133;28;20197;-70
2023/04/03 06:07:44;;;;;;;4.37;1.07;;;;;;;2.15;100.00;103536.00;5043921;28;20224;-71
2023/04/03 06:10:12;;;;;;;5.00;1.40;;;;;;;2.26;100.00;103525.28;5030793;28;20242;-65
2023/04/03 06:12:37;;;;;;;3.03;1.20;;;;;;;2.35;100.00;103524.50;5044857;28;20222;-69
2023/04/03 06:15:03;;;;;;;3.13;1.10;;;;;;;2.49;100.00;103515.69;5027822;28;20215;-67
2023/04/03 06:17:29;;;;;;;4.07;1.40;;;;;;;2.55;100.00;103519.69;5048570;28;20213;-67
2023/04/03 06:19:55;;;;;;;9.40;1.67;;;;;;;2.67;100.00;103504.78;5030470;28;20200;-66
2023/04/03 06:22:21;;;;;;;6.50;1.90;;;;;;;2.77;100.00;103497.31;5030702;28;20178;-67
2023/04/03 06:24:46;;;;;;;3.60;1.60;;;;;;;2.91;100.00;103497.84;5014415;28;20205;-67
2023/04/03 06:27:12;;;;;;;9.40;1.73;;;;;;;3.04;100.00;103484.66;5048362;28;20323;-67
2023/04/03 06:29:37;;;;;;;9.10;2.47;;;;;;;3.17;100.00;103485.91;5048787;28;20221;-67
2023/04/03 06:32:03;;;;;;;6.13;2.07;;;;;;;3.26;100.00;103485.88;5048422;28;20347;-68
2023/04/03 06:34:28;;;;;;;6.40;2.10;;;;;;;3.49;100.00;103504.91;5048108;28;20213;-69
2023/04/03 06:36:54;;;;;;;13.87;2.20;;;;;;;3.63;100.00;103484.25;5025834;28;20229;-69
2023/04/03 06:39:22;;;;;;;9.97;1.90;;;;;;;3.89;100.00;103472.25;5047514;28;20188;-69
2023/04/03 06:41:48;;;;;;;8.57;2.50;;;;;;;3.99;100.00;103436.81;5044487;28;20720;-68
2023/04/03 06:44:15;;;;;;;10.13;2.10;;;;;;;4.14;100.00;103412.78;5030088;28;20211;-68
2023/04/03 06:46:42;;;;;;;9.53;1.67;;;;;;;4.27;100.00;103382.66;5047284;28;20185;-68
2023/04/03 06:49:08;;;;;;;5.73;1.67;;;;;;;4.37;100.00;103382.66;5043689;28;20209;-67
2023/04/03 06:51:35;;;;;;;6.30;1.60;;;;;;;4.47;100.00;103354.78;5030412;28;20213;-67
2023/04/03 06:54:02;;;;;;;9.53;1.80;;;;;;;4.57;100.00;103344.66;5038871;28;20228;-67
2023/04/03 06:56:28;;;;;;;7.70;1.30;;;;;;;4.71;100.00;103328.03;5044329;28;20360;-67
2023/04/03 06:58:57;;;;;;;8.50;1.77;;;;;;;4.98;100.00;103336.25;5046722;28;20189;-67
2023/04/03 07:01:24;;;;;;;7.67;1.50;;;;;;;4.87;100.00;103277.75;5028776;28;20193;-67
2023/04/03 07:03:50;;;;;;;9.27;2.03;;;;;;;5.00;100.00;103262.75;5048512;28;20208;-69
2023/04/03 07:06:17;;;;;;;6.37;1.60;;;;;;;5.13;100.00;103251.19;5045919;28;20619;-67
2023/04/03 07:08:44;;;;;;;4.53;1.43;;;;;;;5.32;100.00;103251.88;5025294;28;20790;-68
2023/04/03 07:11:10;;;;;;;4.93;1.27;;;;;;;5.39;100.00;103220.22;5049113;28;20599;-67
2023/04/03 07:13:36;;;;;;;6.13;1.57;;;;;;;5.58;100.00;103216.66;5047683;28;20194;-68
2023/04/03 07:16:03;;;;;;;3.53;1.50;;;;;;;5.63;100.00;103195.06;5047309;28;20216;-68
2023/04/03 07:18:29;;;;;;;6.00;1.50;;;;;;;5.83;100.00;103161.00;5047687;28;20298;-67
2023/04/03 07:20:55;;;;;;;4.33;1.43;;;;;;;5.93;100.00;103140.59;5048093;28;20228;-68
2023/04/03 07:23:21;;;;;;;4.23;1.73;;;;;;;6.13;100.00;103148.91;5049458;28;20182;-69
2023/04/03 07:25:49;;;;;;;6.10;1.30;;;;;;;6.03;100.00;103149.00;5051546;28;20217;-69
2023/04/03 07:28:16;;;;;;;3.10;1.27;;;;;;;6.19;100.00;103146.84;5052105;28;20654;-69
2023/04/03 07:31:03;;;;;;;4.17;1.57;;;;;;;6.39;100.00;103145.75;5051292;28;20244;-68
2023/04/03 07:33:28;;;;;;;5.47;1.20;;;;;;;6.44;100.00;103102.06;5048913;28;20217;-68
2023/04/03 07:35:54;;;;;;;6.80;1.40;;;;;;;6.53;100.00;103079.81;5041568;28;20272;-68
2023/04/03 07:38:19;;;;;;;5.23;1.43;;;;;;;6.65;100.00;103064.53;5050408;28;20181;-68
2023/04/03 07:40:50;;;;;;;8.10;1.83;;;;;;;7.00;100.00;102999.13;5050871;28;20189;-68
2023/04/03 07:43:17;;;;;;;1.40;1.10;;;;;;;7.09;100.00;103045.59;5051240;28;20198;-68
2023/04/03 07:45:43;;;;;;;2.67;1.23;;;;;;;7.21;100.00;103020.94;5046099;28;20213;-68
2023/04/03 07:48:11;;;;;;;5.70;1.40;;;;;;;7.23;100.00;102923.44;5048923;28;20186;-67
2023/04/03 07:50:36;;;;;;;4.03;1.30;;;;;;;7.44;100.00;102909.59;5050647;28;20239;-67
2023/04/03 07:53:03;;;;;;;3.47;1.10;;;;;;;7.53;100.00;102855.75;5051115;28;20253;-67
2023/04/03 07:55:28;;;;;;;4.93;1.43;;;;;;;7.60;97.28;102812.91;5050789;28;20206;-66
2023/04/03 07:57:55;;;;;;;4.97;1.03;;;;;;;7.65;97.24;102826.81;5047987;28;20595;-68
2023/04/03 08:00:20;;;;;;;3.73;0.97;;;;;;;7.87;89.92;102767.84;5048019;28;20264;-68
2023/04/03 08:02:51;;;;;;;4.20;0.97;;;;;;;8.09;87.58;102720.75;5051945;28;20276;-68
2023/04/03 08:05:21;;;;;;;2.00;1.00;;;;;;;7.97;84.59;102676.66;5031729;28;20210;-68
2023/04/03 08:07:47;;;;;;;3.63;1.30;;;;;;;8.33;82.63;102683.94;5046222;28;20194;-69
2023/04/03 08:10:14;;;;;;;2.10;0.93;;;;;;;8.40;76.13;102622.28;5050804;28;20300;-68
2023/04/03 08:12:39;;;;;;;4.47;1.30;;;;;;;8.59;76.58;102602.06;5050499;28;20586;-68
2023/04/03 08:15:06;;;;;;;2.77;0.90;;;;;;;8.72;76.65;102624.06;5045408;28;20205;-68
2023/04/03 08:17:32;;;;;;;2.60;1.03;;;;;;;8.84;71.67;102583.88;5050356;28;20695;-68
2023/04/03 08:19:58;;;;;;;3.23;1.10;;;;;;;8.89;65.65;102529.66;5050172;28;20189;-68
2023/04/03 08:22:23;;;;;;;1.90;0.90;;;;;;;9.22;67.63;102551.88;5049141;28;20659;-68
2023/04/03 08:24:49;;;;;;;3.80;0.87;;;;;;;9.06;70.97;102597.88;5049810;28;20693;-68
2023/04/03 08:27:14;;;;;;;2.77;1.10;;;;;;;9.14;62.48;102522.50;5048669;28;20197;-68
2023/04/03 08:29:40;;;;;;;4.60;1.00;;;;;;;9.15;59.39;102500.34;5048960;28;20186;-68
2023/04/03 08:32:06;;;;;;;3.50;0.90;;;;;;;9.38;60.85;102541.66;5030951;28;20213;-68
2023/04/03 08:34:34;;;;;;;3.07;0.57;;;;;;;9.41;58.39;102536.69;5049268;28;20217;-68
2023/04/03 08:37:00;;;;;;;1.93;0.70;;;;;;;9.47;54.04;102515.66;5040992;28;20225;-68
2023/04/03 08:39:26;;;;;;;2.07;0.57;;;;;;;9.71;51.83;102926.13;5048937;28;20209;-68
2023/04/03 08:41:52;;;;;;;1.80;0.60;;;;;;;9.74;51.76;103110.50;5050179;28;20280;-68
2023/04/03 08:44:38;;;;;;;2.27;0.83;;;;;;;9.93;51.83;103138.94;5049501;28;20210;-68
2023/04/03 08:47:25;;;;;;;3.30;0.63;;;;;;;9.98;51.61;103186.16;5031354;28;20204;-67
2023/04/03 08:49:53;;;;;;;3.40;1.03;;;;;;;10.12;53.05;103201.59;5047201;28;20189;-67
2023/04/03 08:52:26;;;;;;;3.20;1.13;;;;;;;10.19;52.23;103190.91;5048937;28;20213;-68
2023/04/03 08:55:05;;;;;;;2.03;1.17;;;;;;;10.14;52.24;103202.53;5031919;28;20244;-68
2023/04/03 08:57:38;;;;;;;2.73;0.83;;;;;;;10.42;51.60;103198.22;5048322;28;20181;-68
2023/04/03 09:00:22;;;;;;;3.23;0.90;;;;;;;10.44;52.55;103221.38;5047618;28;20193;-68
2023/04/03 09:02:48;;;;;;;4.73;1.17;;;;;;;10.60;52.02;103209.53;5045126;28;20190;-69
2023/04/03 09:05:20;;;;;;;3.00;1.00;;;;;;;10.76;46.76;103198.47;5047704;28;20219;-68
2023/04/03 09:07:50;;;;;;;3.07;0.93;;;;;;;10.76;46.83;103208.72;5044250;28;20182;-68
2023/04/03 09:10:27;;;;;;;1.53;0.90;;;;;;;10.93;46.44;103226.81;5030604;28;20631;-69
2023/04/03 09:13:38;;;;;;;1.90;0.80;;;;;;;10.93;49.66;103279.78;5045718;28;20237;-68
2023/04/03 09:16:19;;;;;;;3.43;1.20;;;;;;;11.45;46.20;103226.34;5029574;28;20186;-68
2023/04/03 09:18:52;;;;;;;3.70;0.83;;;;;;;11.75;46.37;103235.69;5025998;28;20273;-67
2023/04/03 09:21:28;;;;;;;3.27;0.93;;;;;;;11.51;45.99;103287.34;5046685;28;20296;-67
2023/04/03 09:23:57;;;;;;;1.40;0.83;;;;;;;11.55;45.91;103285.03;5044568;28;20209;-68
2023/04/03 09:26:29;;;;;;;2.10;0.93;;;;;;;11.88;46.51;103274.06;5049201;28;20226;-69
2023/04/03 09:28:59;;;;;;;3.77;1.30;;;;;;;12.08;43.58;103246.84;5049522;28;20194;-68
2023/04/03 09:31:29;;;;;;;1.33;0.70;;;;;;;12.31;45.39;103279.75;5030555;28;20300;-67
2023/04/03 09:34:32;;;;;;;2.00;1.03;;;;;;;12.37;44.16;103267.19;5049241;28;20213;-67
2023/04/03 09:37:05;;;;;;;3.53;1.07;;;;;;;12.28;44.27;103266.72;4995168;28;20228;-68
2023/04/03 09:39:47;;;;;;;2.57;1.00;;;;;;;12.36;44.25;103280.88;5046883;28;20239;-67
2023/04/03 09:42:19;;;;;;;2.83;1.10;;;;;;;12.58;46.15;103281.16;5047806;28;20197;-68
2023/04/03 09:44:57;;;;;;;2.73;0.90;;;;;;;12.57;43.51;103251.97;5043703;28;20819;-69
2023/04/03 09:47:27;;;;;;;4.17;1.30;;;;;;;12.74;44.01;103270.81;5047897;28;20193;-68
2023/04/03 09:50:14;;;;;;;2.10;0.93;;;;;;;12.61;42.24;103256.47;5048959;28;20297;-68
2023/04/03 09:52:42;;;;;;;1.90;1.00;;;;;;;12.64;42.46;103277.22;5048579;28;20297;-68
2023/04/03 09:55:14;;;;;;;2.00;1.00;;;;;;;12.95;44.26;103287.31;5048827;28;20228;-69
2023/04/03 09:57:40;;;;;;;2.70;1.27;;;;;;;13.10;42.44;103252.06;5049425;28;20193;-68
2023/04/03 10:00:19;;;;;;;1.97;0.90;;;;;;;13.38;44.38;103279.97;5049146;28;20197;-69
2023/04/03 10:02:49;;;;;;;3.22;1.10;;;;;;;13.68;43.14;103269.41;5050266;28;20185;-69
2023/04/03 10:05:35;;;;;;;2.13;1.10;;;;;;;13.46;39.31;103240.03;5047069;28;20235;-69
2023/04/03 10:08:31;;;;;;;1.88;1.00;;;;;;;14.43;40.94;103259.94;5048553;28;20189;-70
2023/04/03 10:11:12;;;;;;;4.88;1.10;;;;;;;15.82;40.66;103254.41;5045577;28;20206;-69
2023/04/03 10:13:56;;;;;;;3.08;1.13;;;;;;;19.87;33.53;103229.91;5045657;28;20236;-66
2023/04/03 10:16:28;;;;;;;3.90;1.98;;;;;;;21.78;30.41;103320.03;5046109;28;20186;-69
2023/04/03 10:19:07;;;;;;;2.95;1.70;;;;;;;22.75;28.48;103339.44;5048635;28;20593;-69
2023/04/03 10:21:35;;;;;;;2.40;1.10;;;;;;;21.49;28.37;103360.47;5046775;28;20188;-69
2023/04/03 10:24:15;;;;;;;2.42;1.10;;;;;;;20.66;28.87;103359.84;5044995;28;20202;-68
2023/04/03 10:26:56;;;;;;;1.52;1.00;;;;;;;18.88;33.19;103383.47;5047900;28;20182;-69
2023/04/03 10:29:48;;;;;;;3.55;1.38;;;;;;;18.22;32.81;103401.47;5048191;28;20197;-69
2023/04/03 10:32:45;;;;;;;3.43;1.60;;;;;;;17.60;33.63;103398.69;5046191;28;20229;-68
2023/04/03 10:35:30;;;;;;;2.00;1.00;;;;;;;16.52;34.04;103398.38;5048009;28;20209;-68
2023/04/03 10:38:15;;;;;;;2.00;1.30;;;;;;;15.00;35.08;103413.69;5029896;28;20230;-68
2023/04/03 10:41:28;;;;;;;4.53;1.20;;;;;;;14.01;37.58;103427.19;5047445;28;20702;-69
2023/04/03 10:44:30;;;;;;;2.30;1.00;;;;;;;13.96;37.35;103429.59;4957104;28;20347;-68
2023/04/03 10:47:08;;;;;;;2.43;1.30;;;;;;;13.41;37.54;103421.69;5043678;28;20201;-68
2023/04/03 10:49:55;;;;;;;2.30;1.13;;;;;;;14.30;37.48;103408.84;5044650;28;20263;-68
2023/04/03 10:52:51;;;;;;;2.70;1.40;;;;;;;14.76;35.62;103405.81;5043864;28;20214;-69
2023/04/03 10:55:32;;;;;;;0.97;0.70;;;;;;;14.78;34.54;103390.41;5044323;28;20210;-69
2023/04/03 10:57:59;;;;;;;3.00;1.07;;;;;;;14.01;36.18;103401.44;5044800;28;20188;-68
2023/04/03 11:00:43;;;;;;;4.63;1.37;;;;;;;14.75;36.53;103395.41;5033626;28;20193;-69
2023/04/03 11:03:27;;;;;;;2.90;1.13;;;;;;;14.70;37.64;103397.81;5051999;28;20905;-68
2023/04/03 11:05:55;;;;;;;2.30;1.17;;;;;;;13.77;37.05;103392.56;5046830;28;20762;-69
2023/04/03 11:08:51;;;;;;;2.90;1.00;;;;;;;12.83;37.29;103397.25;5044679;28;20221;-68
2023/04/03 11:11:25;;;;;;;2.43;1.10;;;;;;;14.27;37.76;103394.13;5048876;28;20184;-68
2023/04/03 11:14:00;;;;;;;3.73;1.20;;;;;;;14.68;36.48;103376.22;5047095;28;20212;-67
2023/04/03 11:16:33;;;;;;;2.30;1.43;;;;;;;14.66;36.10;103367.53;5051187;28;20207;-69
2023/04/03 11:19:21;;;;;;;2.77;1.30;;;;;;;15.02;37.07;103369.09;5048810;28;20670;-68
2023/04/03 11:21:57;;;;;;;2.97;1.13;;;;;;;14.56;37.19;103378.28;5050947;28;20261;-69
2023/04/03 11:24:26;;;;;;;2.00;1.00;;;;;;;15.02;37.44;103371.69;5051311;28;20247;-68
2023/04/03 11:26:54;;;;;;;4.97;1.27;;;;;;;14.83;38.70;103376.84;5033564;28;20185;-67
2023/04/03 11:29:24;;;;;;;2.30;0.93;;;;;;;15.20;36.63;103366.41;5032907;28;20206;-69
2023/04/03 11:32:14;;;;;;;3.27;0.93;;;;;;;14.52;37.10;103360.91;5051465;28;20226;-67
2023/04/03 11:34:43;;;;;;;2.03;1.00;;;;;;;14.24;36.69;103355.34;5049206;28;20210;-68
2023/04/03 11:37:21;;;;;;;3.30;1.20;;;;;;;14.80;35.93;103352.63;5024045;28;20248;-68